Terminal Aerodrome Forecast
Issued by NWS

Home | Current Version | Previous Version | Text Only | Print | Product List | Glossary On
Versions: 1 2 3 4 5 6 7 8 9 10 11 12 13
000
FTUS43 KICT 291720
TAFSLN
TAF
KSLN 291720Z 2918/3018 05012KT P6SM VCSH SCT050 BKN120
     FM292300 06006KT P6SM BKN080
     FM301300 14005KT P6SM BKN090=

USA.gov is the U.S. government's official web portal to all federal, state and local government web resources and services.